Lykers, New York
Current Conditions -  °F | °C
As of 5:15 AM on Wednesday 26 Nov 2014 (Local Time) from KNY0 Reporting Station
Broken Clouds Broken Clouds  
Wind Chill: 27°   Ceiling: 3500
Heat Index: 32°   Visibility: 10mi
Dew Point: 26°   Wind: 5mph
Humidity: 77%   Direction: 270°W
Pressure: 30.19"   Gusts: NA
Location:  42.8384°N, 74.4592°W
Report Text: KNY0 261015Z AUTO 27004KT 10SM BKN035 00/M04 A3019 RMK AO2 T00001036
Loading
Personal Weather Stations






























Interactive Weather Map New forecast layout! Learn more

10-Day Weather Forecast

Advertisements
Track Severe Weather on mobile